Time;durP1;ratioP1;P1;durP2;ratioP2;P2;SDS_P1;SDS_P2;PMS_P1;PMS_P2;Temp;Humidity;BMP_temperature;BMP_pressure;BME280_temperature;BME280_humidity;BME280_pressure;Samples;Min_cycle;Max_cycle;Signal;HPM_P1;HPM_P2
2020/12/02 00:01:29;;;;;;;18.83;11.05;;;3.60;76.50;;;;;;5081082;28;20047;-64
2020/12/02 00:04:06;;;;;;;19.90;10.20;;;3.60;76.50;;;;;;5079237;28;20033;-64
2020/12/02 00:06:33;;;;;;;22.02;12.10;;;3.60;76.80;;;;;;5071690;28;20032;-64
2020/12/02 00:09:11;;;;;;;20.40;11.82;;;3.60;76.80;;;;;;5084123;28;20031;-63
2020/12/02 00:11:36;;;;;;;21.55;11.70;;;3.60;77.00;;;;;;5078290;28;20364;-63
2020/12/02 00:14:07;;;;;;;15.63;9.90;;;3.60;77.80;;;;;;5074554;28;20028;-63
2020/12/02 00:16:33;;;;;;;16.42;10.68;;;3.70;76.90;;;;;;5079464;28;20050;-63
2020/12/02 00:19:01;;;;;;;14.93;10.05;;;3.60;77.30;;;;;;5080362;28;20036;-63
2020/12/02 00:21:30;;;;;;;16.85;10.32;;;3.60;76.70;;;;;;5080064;28;20074;-63
2020/12/02 00:23:56;;;;;;;22.13;11.73;;;3.60;76.60;;;;;;5077172;28;20060;-63
2020/12/02 00:26:23;;;;;;;16.70;9.98;;;3.60;76.70;;;;;;5084012;28;20024;-63
2020/12/02 00:28:49;;;;;;;16.55;10.45;;;3.60;76.70;;;;;;5081856;28;20473;-63
2020/12/02 00:31:16;;;;;;;18.60;11.20;;;3.60;76.70;;;;;;5081384;28;20021;-63
2020/12/02 00:33:42;;;;;;;16.75;10.55;;;3.60;76.90;;;;;;5082264;28;20039;-63
2020/12/02 00:36:09;;;;;;;21.83;12.40;;;3.60;77.40;;;;;;5083158;28;20484;-63
2020/12/02 00:38:34;;;;;;;21.70;11.90;;;3.60;76.90;;;;;;5081424;28;20019;-63
2020/12/02 00:41:00;;;;;;;19.65;11.43;;;3.60;76.80;;;;;;5082294;28;20471;-63
2020/12/02 00:43:27;;;;;;;21.58;12.75;;;3.60;77.10;;;;;;5079886;28;20036;-63
2020/12/02 00:45:59;;;;;;;18.67;11.27;;;3.60;77.00;;;;;;5077329;28;20025;-63
2020/12/02 00:48:27;;;;;;;23.05;14.00;;;3.60;77.10;;;;;;5084965;28;20418;-63
2020/12/02 00:50:54;;;;;;;21.73;13.48;;;3.70;77.10;;;;;;5079647;28;20024;-63
2020/12/02 00:53:32;;;;;;;17.25;10.73;;;3.70;77.30;;;;;;5078956;28;20032;-63
2020/12/02 00:55:58;;;;;;;16.63;11.18;;;3.70;77.20;;;;;;5082493;28;20468;-63
2020/12/02 00:58:28;;;;;;;20.00;12.25;;;3.70;76.80;;;;;;5075578;28;20031;-63
2020/12/02 01:00:55;;;;;;;16.90;10.57;;;3.70;76.60;;;;;;5080160;28;20020;-63
2020/12/02 01:03:27;;;;;;;19.52;11.70;;;3.70;77.00;;;;;;5077978;28;20020;-63
2020/12/02 01:05:53;;;;;;;;;;;3.70;76.90;;;;;;5078659;28;20043;-63
2020/12/02 01:08:27;;;;;;;16.73;10.40;;;3.70;76.60;;;;;;5077820;28;19939;-63
2020/12/02 01:11:10;;;;;;;18.92;11.07;;;3.70;77.00;;;;;;5084051;28;20048;-63
2020/12/02 01:13:37;;;;;;;20.27;12.00;;;3.70;76.70;;;;;;5067981;28;20048;-63
2020/12/02 01:16:08;;;;;;;20.40;11.10;;;3.70;76.80;;;;;;5073929;28;20074;-63
2020/12/02 01:18:34;;;;;;;17.48;11.05;;;3.70;76.90;;;;;;5076878;28;20059;-63
2020/12/02 01:21:12;;;;;;;20.08;11.63;;;3.70;76.60;;;;;;5079541;28;20033;-63
2020/12/02 01:23:39;;;;;;;17.50;10.18;;;3.70;76.70;;;;;;5088885;28;20040;-63
2020/12/02 01:26:05;;;;;;;17.27;10.35;;;3.70;76.50;;;;;;5086872;28;20025;-63
2020/12/02 01:28:32;;;;;;;22.52;13.00;;;3.70;76.50;;;;;;5082774;28;20357;-63
2020/12/02 01:30:59;;;;;;;22.02;11.75;;;3.70;76.70;;;;;;5080333;28;20035;-63
2020/12/02 01:33:25;;;;;;;19.13;11.10;;;3.70;76.90;;;;;;5086594;28;20027;-63
2020/12/02 01:35:52;;;;;;;15.05;10.25;;;3.70;76.70;;;;;;5085983;28;20043;-63
2020/12/02 01:38:27;;;;;;;19.05;10.15;;;3.80;76.80;;;;;;5081237;28;20021;-63
2020/12/02 01:40:53;;;;;;;19.50;12.00;;;3.70;76.90;;;;;;5088660;28;20406;-63
2020/12/02 01:43:19;;;;;;;17.55;10.80;;;3.70;76.80;;;;;;5074312;28;20028;-63
2020/12/02 01:45:51;;;;;;;16.45;9.88;;;3.70;76.80;;;;;;5086812;28;20448;-63
2020/12/02 01:48:54;;;;;;;16.60;10.85;;;3.80;76.70;;;;;;5079741;28;20024;-63
2020/12/02 01:51:47;;;;;;;19.67;11.57;;;3.70;76.50;;;;;;5070135;28;20043;-63
2020/12/02 01:54:23;;;;;;;22.48;12.18;;;3.70;76.70;;;;;;5093407;28;20030;-63
2020/12/02 01:56:52;;;;;;;14.40;8.88;;;3.80;76.80;;;;;;5088725;28;20039;-63
2020/12/02 01:59:38;;;;;;;15.45;9.93;;;3.70;76.70;;;;;;5077217;28;20021;-63
2020/12/02 02:02:16;;;;;;;16.35;9.77;;;3.80;76.70;;;;;;5078594;28;20024;-63
2020/12/02 02:04:50;;;;;;;21.20;9.80;;;3.80;76.50;;;;;;5087535;28;20093;-63
2020/12/02 02:07:21;;;;;;;15.35;9.18;;;3.80;76.80;;;;;;5076812;28;20050;-63
2020/12/02 02:09:48;;;;;;;17.38;10.80;;;3.80;76.80;;;;;;5088156;28;20043;-63
2020/12/02 02:12:48;;;;;;;22.23;11.57;;;3.80;76.70;;;;;;5083432;28;20055;-63
2020/12/02 02:15:28;;;;;;;16.42;10.38;;;3.80;76.70;;;;;;5042981;28;20094;-63
2020/12/02 02:17:56;;;;;;;18.55;9.77;;;3.80;76.80;;;;;;5077889;28;20025;-63
2020/12/02 02:20:27;;;;;;;18.15;10.05;;;3.80;76.70;;;;;;5077987;28;20021;-63
2020/12/02 02:22:53;;;;;;;16.95;10.10;;;3.80;77.00;;;;;;5077754;28;20067;-63
2020/12/02 02:25:19;;;;;;;20.50;11.13;;;3.80;76.70;;;;;;5071899;28;20369;-63
2020/12/02 02:27:46;;;;;;;18.55;11.18;;;3.90;76.70;;;;;;5081877;28;20046;-63
2020/12/02 02:30:12;;;;;;;21.00;12.25;;;3.90;76.70;;;;;;5088952;28;20103;-63
2020/12/02 02:32:38;;;;;;;18.20;9.70;;;3.90;76.70;;;;;;5090092;28;20525;-63
2020/12/02 02:35:05;;;;;;;15.07;10.15;;;3.90;76.70;;;;;;5092763;28;20024;-63
2020/12/02 02:37:31;;;;;;;18.38;10.05;;;3.90;76.70;;;;;;5075152;28;20092;-63
2020/12/02 02:39:59;;;;;;;18.75;10.73;;;3.90;76.70;;;;;;5088166;28;20105;-63
2020/12/02 02:42:35;;;;;;;21.58;11.57;;;3.90;76.70;;;;;;5077951;28;20271;-63
2020/12/02 02:45:06;;;;;;;22.85;12.05;;;3.90;76.70;;;;;;5077370;28;20025;-63
2020/12/02 02:47:32;;;;;;;15.20;9.55;;;3.90;76.60;;;;;;5086858;28;20090;-63
2020/12/02 02:49:58;;;;;;;17.52;9.85;;;3.80;76.60;;;;;;5085927;28;20036;-63
2020/12/02 02:52:24;;;;;;;16.88;9.30;;;3.90;76.70;;;;;;5085761;28;20016;-63
2020/12/02 02:54:49;;;;;;;19.95;11.63;;;3.90;76.80;;;;;;5097614;28;20028;-63
2020/12/02 02:57:15;;;;;;;18.02;11.18;;;3.90;76.70;;;;;;5084933;28;20020;-63
2020/12/02 02:59:41;;;;;;;13.88;9.15;;;3.90;76.60;;;;;;5087675;28;20056;-63
2020/12/02 03:02:11;;;;;;;15.40;9.35;;;3.90;76.70;;;;;;5089389;28;20025;-63
2020/12/02 03:04:37;;;;;;;19.20;10.25;;;3.90;76.50;;;;;;5082499;28;20035;-63
2020/12/02 03:07:04;;;;;;;18.92;11.20;;;3.80;76.70;;;;;;5081179;28;20032;-63
2020/12/02 03:09:30;;;;;;;19.77;11.45;;;3.90;76.50;;;;;;5083728;28;20459;-63
2020/12/02 03:11:56;;;;;;;13.60;8.18;;;3.80;76.80;;;;;;5077983;28;20045;-63
2020/12/02 03:14:22;;;;;;;12.82;8.30;;;3.80;76.90;;;;;;5086300;28;20024;-63
2020/12/02 03:16:54;;;;;;;16.10;8.80;;;3.80;76.70;;;;;;5083602;28;20021;-63
2020/12/02 03:19:25;;;;;;;17.92;10.05;;;3.80;76.70;;;;;;5081455;28;20024;-63
2020/12/02 03:21:53;;;;;;;15.98;8.85;;;3.80;76.90;;;;;;5081567;28;20021;-63
2020/12/02 03:24:20;;;;;;;13.50;8.07;;;3.80;76.70;;;;;;5088281;28;20029;-63
2020/12/02 03:26:49;;;;;;;16.42;7.75;;;3.80;77.00;;;;;;5088179;28;20600;-63
2020/12/02 03:29:15;;;;;;;15.32;8.80;;;3.80;76.80;;;;;;5075874;28;20213;-63
2020/12/02 03:31:41;;;;;;;12.48;7.22;;;3.70;76.60;;;;;;5083501;28;20349;-63
2020/12/02 03:34:15;;;;;;;11.15;7.78;;;3.70;76.70;;;;;;5091316;28;20025;-63
2020/12/02 03:36:41;;;;;;;14.02;8.25;;;3.70;76.60;;;;;;5071955;28;20041;-63
2020/12/02 03:39:08;;;;;;;14.38;8.95;;;3.70;76.80;;;;;;5082245;28;20031;-63
2020/12/02 03:41:34;;;;;;;11.40;7.68;;;3.70;76.80;;;;;;5082565;28;20080;-63
2020/12/02 03:44:00;;;;;;;11.88;7.63;;;3.70;76.80;;;;;;5079825;28;20064;-63
2020/12/02 03:46:26;;;;;;;12.57;7.07;;;3.70;76.80;;;;;;5085657;28;20020;-63
2020/12/02 03:48:52;;;;;;;14.07;8.15;;;3.80;76.90;;;;;;5081771;28;20460;-63
2020/12/02 03:51:18;;;;;;;11.38;8.23;;;3.70;76.60;;;;;;5082398;28;20108;-63
2020/12/02 03:53:44;;;;;;;10.50;7.30;;;3.70;76.50;;;;;;5086865;28;20048;-63
2020/12/02 03:56:10;;;;;;;9.20;6.57;;;3.70;76.60;;;;;;5085690;28;20020;-63
2020/12/02 03:58:35;;;;;;;11.85;7.65;;;3.70;76.80;;;;;;5079106;28;20445;-63
2020/12/02 04:01:02;;;;;;;10.73;7.10;;;3.70;76.90;;;;;;5082435;28;20020;-63
2020/12/02 04:03:28;;;;;;;14.00;8.15;;;3.70;77.10;;;;;;5076598;28;20036;-63
2020/12/02 04:05:54;;;;;;;11.88;7.43;;;3.60;76.90;;;;;;5080040;28;20017;-63
2020/12/02 04:08:19;;;;;;;11.05;7.53;;;3.70;77.10;;;;;;5085174;28;20033;-63
2020/12/02 04:10:45;;;;;;;10.02;6.88;;;3.70;77.00;;;;;;5085182;28;20490;-63
2020/12/02 04:13:11;;;;;;;8.02;6.25;;;3.70;77.00;;;;;;5060110;28;21550;-63
2020/12/02 04:15:37;;;;;;;10.23;7.25;;;3.70;77.00;;;;;;5084088;28;20021;-63
2020/12/02 04:18:03;;;;;;;8.35;6.80;;;3.70;77.20;;;;;;5080767;28;20027;-63
2020/12/02 04:20:29;;;;;;;7.32;5.63;;;3.70;77.00;;;;;;5078461;28;20027;-63
2020/12/02 04:22:55;;;;;;;8.63;6.18;;;3.70;76.90;;;;;;5080643;28;20066;-63
2020/12/02 04:25:25;;;;;;;8.00;5.72;;;3.70;77.10;;;;;;5076313;28;20025;-63
2020/12/02 04:27:51;;;;;;;7.72;5.70;;;3.70;77.20;;;;;;5082291;28;20008;-63
2020/12/02 04:30:18;;;;;;;7.57;5.43;;;3.70;76.90;;;;;;5063321;28;20032;-63
2020/12/02 04:32:46;;;;;;;6.90;4.78;;;3.70;76.90;;;;;;5087116;28;20475;-63
2020/12/02 04:35:12;;;;;;;6.88;5.38;;;3.70;76.80;;;;;;5088358;28;20017;-63
2020/12/02 04:37:37;;;;;;;6.78;4.93;;;3.70;76.90;;;;;;5081730;28;20016;-63
2020/12/02 04:40:11;;;;;;;7.85;5.20;;;3.70;77.00;;;;;;5094484;28;20142;-63
2020/12/02 04:42:43;;;;;;;8.57;6.18;;;3.70;76.80;;;;;;5065159;28;20024;-63
2020/12/02 04:45:13;;;;;;;7.32;6.00;;;3.60;76.90;;;;;;5090091;28;20024;-63
2020/12/02 04:47:41;;;;;;;9.35;6.43;;;3.70;76.80;;;;;;5087895;28;20119;-63
2020/12/02 04:50:23;;;;;;;8.85;5.93;;;3.60;77.00;;;;;;5082121;28;20032;-63
2020/12/02 04:53:06;;;;;;;7.93;5.95;;;3.60;77.00;;;;;;5087980;28;20020;-63
2020/12/02 04:55:32;;;;;;;9.13;5.72;;;3.60;76.90;;;;;;5074665;28;20555;-63
2020/12/02 04:57:57;;;;;;;6.93;5.38;;;3.50;77.10;;;;;;5085273;28;20050;-63
2020/12/02 05:00:30;;;;;;;7.82;5.32;;;3.50;77.30;;;;;;5078312;28;20020;-63
2020/12/02 05:03:12;;;;;;;9.13;6.43;;;3.50;77.30;;;;;;5083900;28;20035;-63
2020/12/02 05:05:37;;;;;;;8.10;5.65;;;3.50;77.20;;;;;;5079771;28;20028;-63
2020/12/02 05:08:36;;;;;;;9.80;7.10;;;3.50;77.50;;;;;;5080015;28;20032;-63
2020/12/02 05:11:09;;;;;;;9.30;6.60;;;3.40;77.20;;;;;;5052317;28;20055;-63
2020/12/02 05:13:35;;;;;;;8.88;6.28;;;3.30;77.10;;;;;;5069508;28;20060;-63
2020/12/02 05:16:11;;;;;;;8.02;5.47;;;3.20;77.50;;;;;;5080566;28;20024;-63
2020/12/02 05:18:38;;;;;;;7.70;5.75;;;3.20;78.00;;;;;;5089017;28;20025;-63
2020/12/02 05:21:20;;;;;;;7.32;5.53;;;3.20;78.10;;;;;;5083814;28;20163;-63
2020/12/02 05:24:02;;;;;;;7.72;6.18;;;3.20;78.10;;;;;;5079562;28;20096;-63
2020/12/02 05:26:33;;;;;;;7.70;5.60;;;3.30;78.30;;;;;;5082830;28;20031;-63
2020/12/02 05:29:08;;;;;;;7.40;5.55;;;3.30;78.60;;;;;;5081479;28;20029;-63
2020/12/02 05:31:34;;;;;;;10.02;6.78;;;3.30;78.50;;;;;;5081893;28;20044;-63
2020/12/02 05:34:11;;;;;;;10.43;6.90;;;3.40;78.20;;;;;;5085839;28;20024;-64
2020/12/02 05:36:42;;;;;;;15.88;10.82;;;3.40;78.00;;;;;;5076700;28;20074;-63
2020/12/02 05:39:41;;;;;;;21.55;14.88;;;3.30;77.90;;;;;;5080976;28;20444;-63
2020/12/02 05:42:17;;;;;;;26.02;16.90;;;3.30;77.60;;;;;;5078211;28;20020;-63
2020/12/02 05:44:43;;;;;;;30.50;17.30;;;3.30;78.10;;;;;;5082192;28;20475;-63
2020/12/02 05:47:19;;;;;;;22.30;14.25;;;3.30;78.40;;;;;;5085044;28;20028;-64
2020/12/02 05:49:56;;;;;;;27.52;16.15;;;3.40;78.60;;;;;;5084697;28;20126;-63
2020/12/02 05:52:38;;;;;;;18.95;12.70;;;3.50;78.80;;;;;;5079923;28;20459;-64
2020/12/02 05:55:18;;;;;;;18.42;12.52;;;3.60;78.80;;;;;;5089214;28;20058;-63
2020/12/02 05:58:00;;;;;;;20.55;13.27;;;3.70;78.40;;;;;;5076449;28;20388;-63
2020/12/02 06:00:30;;;;;;;17.77;11.57;;;3.70;78.10;;;;;;5076019;28;20126;-64
2020/12/02 06:02:57;;;;;;;15.68;11.25;;;3.80;78.20;;;;;;5081529;28;20476;-63
2020/12/02 06:05:24;;;;;;;15.77;10.60;;;3.80;78.00;;;;;;5077772;28;20074;-64
2020/12/02 06:07:59;;;;;;;17.67;11.05;;;3.90;77.90;;;;;;5069487;28;20421;-63
2020/12/02 06:10:56;;;;;;;14.45;9.98;;;3.90;77.20;;;;;;5080980;28;20383;-63
2020/12/02 06:13:41;;;;;;;14.40;9.75;;;3.90;77.20;;;;;;5072282;28;20039;-64
2020/12/02 06:16:10;;;;;;;21.73;13.70;;;3.90;77.40;;;;;;5077272;28;20364;-64
2020/12/02 06:18:38;;;;;;;23.65;15.20;;;3.90;77.30;;;;;;5079466;28;20085;-63
2020/12/02 06:21:06;;;;;;;24.67;15.60;;;3.90;77.40;;;;;;5077066;28;20468;-63
2020/12/02 06:23:42;;;;;;;21.77;13.45;;;3.90;77.20;;;;;;5075316;28;20490;-63
2020/12/02 06:26:07;;;;;;;22.08;13.73;;;4.00;77.20;;;;;;5065664;28;20028;-63
2020/12/02 06:28:33;;;;;;;16.23;11.80;;;4.00;77.20;;;;;;5062379;28;20044;-63
2020/12/02 06:31:05;;;;;;;18.90;11.90;;;4.00;77.20;;;;;;5055159;28;20029;-63
2020/12/02 06:33:34;;;;;;;17.85;10.98;;;4.00;77.20;;;;;;5078174;28;20118;-64
2020/12/02 06:36:19;;;;;;;18.58;12.45;;;4.10;77.20;;;;;;5073028;28;20025;-64
2020/12/02 06:38:48;;;;;;;20.58;14.18;;;4.10;77.00;;;;;;5064674;28;20484;-64
2020/12/02 06:41:40;;;;;;;22.92;13.68;;;4.10;77.00;;;;;;5067945;28;20028;-64
2020/12/02 06:44:11;;;;;;;21.40;12.88;;;4.10;76.60;;;;;;5066286;28;20027;-64
2020/12/02 06:46:55;;;;;;;21.45;13.15;;;4.10;76.90;;;;;;5068117;28;20041;-61
2020/12/02 06:49:27;;;;;;;20.75;13.10;;;4.20;76.70;;;;;;5076525;28;20480;-60
2020/12/02 06:52:05;;;;;;;;;;;4.20;76.80;;;;;;5069366;28;20038;-61
2020/12/02 06:54:36;;;;;;;15.27;10.48;;;4.20;76.60;;;;;;5062586;28;19912;-61
2020/12/02 06:57:24;;;;;;;18.90;11.68;;;4.20;76.60;;;;;;5066770;28;20056;-59
2020/12/02 06:59:58;;;;;;;18.60;12.65;;;4.20;76.50;;;;;;5069428;28;20054;-61
2020/12/02 07:02:44;;;;;;;20.85;14.50;;;4.20;76.40;;;;;;5065696;28;20391;-61
2020/12/02 07:05:31;;;;;;;33.15;22.73;;;4.30;76.20;;;;;;5058395;28;20028;-61
2020/12/02 07:08:14;;;;;;;39.25;24.80;;;4.20;75.90;;;;;;5061535;28;20051;-61
2020/12/02 07:10:41;;;;;;;35.90;22.33;;;4.20;76.00;;;;;;5060527;28;20041;-61
2020/12/02 07:13:14;;;;;;;35.65;23.80;;;4.20;76.10;;;;;;5061933;28;20394;-61
2020/12/02 07:15:39;;;;;;;34.22;23.70;;;4.20;76.00;;;;;;5070743;28;20020;-62
2020/12/02 07:18:11;;;;;;;37.85;24.65;;;4.20;76.00;;;;;;5066799;28;20119;-61
2020/12/02 07:20:37;;;;;;;35.10;24.40;;;4.20;76.00;;;;;;5062108;28;20085;-61
2020/12/02 07:23:04;;;;;;;33.05;22.60;;;4.20;76.70;;;;;;5067224;28;20064;-61
2020/12/02 07:25:30;;;;;;;35.15;22.65;;;4.20;76.20;;;;;;5066011;28;20032;-62
2020/12/02 07:27:56;;;;;;;36.17;24.23;;;4.20;76.00;;;;;;5065120;28;20483;-62
2020/12/02 07:30:35;;;;;;;33.40;22.88;;;4.30;76.10;;;;;;5066437;28;20027;-61
2020/12/02 07:33:20;;;;;;;43.38;26.88;;;4.20;75.70;;;;;;5067058;28;20051;-60
2020/12/02 07:35:47;;;;;;;39.50;26.00;;;4.20;75.80;;;;;;5069143;28;20654;-62
2020/12/02 07:38:15;;;;;;;38.10;25.33;;;4.20;76.30;;;;;;5066449;28;20044;-61
2020/12/02 07:40:41;;;;;;;39.97;25.23;;;4.30;76.50;;;;;;5069779;28;20036;-61
2020/12/02 07:43:23;;;;;;;33.40;21.67;;;4.40;76.10;;;;;;5066684;28;20492;-61
2020/12/02 07:45:49;;;;;;;;;;;4.30;75.70;;;;;;5065962;28;20056;-60
2020/12/02 07:48:23;;;;;;;33.17;20.42;;;4.30;75.70;;;;;;5066114;28;20395;-60
2020/12/02 07:50:55;;;;;;;29.38;16.98;;;4.30;76.30;;;;;;5064629;28;20032;-61
2020/12/02 07:54:01;;;;;;;29.08;18.35;;;4.40;76.50;;;;;;5062526;28;20039;-61
2020/12/02 07:56:33;;;;;;;29.77;17.83;;;4.50;76.70;;;;;;5005058;28;20465;-61
2020/12/02 07:59:16;;;;;;;29.48;19.13;;;4.60;76.00;;;;;;5053599;28;20108;-61
2020/12/02 08:01:44;;;;;;;27.00;16.20;;;4.60;75.80;;;;;;5064357;28;22221;-61
2020/12/02 08:04:22;;;;;;;26.63;17.73;;;4.70;75.80;;;;;;5063958;28;20025;-62
2020/12/02 08:07:03;;;;;;;30.17;17.92;;;4.70;75.50;;;;;;5063284;28;20029;-61
2020/12/02 08:09:44;;;;;;;27.58;15.98;;;4.70;75.60;;;;;;5059292;28;20048;-61
2020/12/02 08:12:20;;;;;;;22.65;14.30;;;4.70;75.70;;;;;;5062492;28;20052;-60
2020/12/02 08:14:49;;;;;;;23.05;14.65;;;4.80;75.40;;;;;;5074456;28;20040;-61
2020/12/02 08:17:16;;;;;;;24.83;15.55;;;4.80;75.30;;;;;;5068983;28;20024;-61
2020/12/02 08:19:46;;;;;;;24.58;14.88;;;4.80;75.50;;;;;;5062764;28;20044;-61
2020/12/02 08:22:21;;;;;;;22.88;14.18;;;4.90;75.60;;;;;;5066073;28;20021;-61
2020/12/02 08:24:47;;;;;;;25.23;16.05;;;4.90;75.60;;;;;;5064383;28;20063;-60
2020/12/02 08:27:15;;;;;;;29.42;17.73;;;5.00;75.40;;;;;;5062033;28;20039;-61
2020/12/02 08:29:49;;;;;;;26.13;14.88;;;5.10;75.30;;;;;;5052838;28;20032;-61
2020/12/02 08:32:32;;;;;;;17.67;10.77;;;5.10;75.20;;;;;;5058887;28;20070;-61
2020/12/02 08:34:58;;;;;;;16.90;9.57;;;5.10;74.80;;;;;;5057275;28;20043;-59
2020/12/02 08:37:38;;;;;;;20.05;11.32;;;5.10;74.90;;;;;;5059785;28;20035;-61
2020/12/02 08:40:26;;;;;;;16.00;10.25;;;5.10;74.70;;;;;;5058814;28;20104;-61
2020/12/02 08:42:52;;;;;;;17.17;11.20;;;5.20;74.80;;;;;;5059849;28;20033;-61
2020/12/02 08:45:23;;;;;;;21.05;12.60;;;5.20;74.80;;;;;;5059135;28;20423;-60
2020/12/02 08:47:57;;;;;;;20.07;12.87;;;5.20;74.90;;;;;;5058408;28;20123;-61
2020/12/02 08:50:27;;;;;;;18.13;11.80;;;5.20;74.70;;;;;;5059256;28;20288;-61
2020/12/02 08:52:55;;;;;;;20.52;12.18;;;5.30;74.70;;;;;;5057902;28;20083;-61
2020/12/02 08:55:22;;;;;;;18.08;11.60;;;5.30;74.50;;;;;;5059971;28;20036;-61
2020/12/02 08:57:48;;;;;;;15.60;10.68;;;5.30;74.50;;;;;;5057482;28;20614;-61
2020/12/02 09:00:18;;;;;;;16.90;10.82;;;5.30;74.30;;;;;;5056367;28;20058;-60
2020/12/02 09:02:44;;;;;;;22.33;15.02;;;5.40;74.20;;;;;;5058561;28;20121;-61
2020/12/02 09:05:10;;;;;;;15.32;10.70;;;5.40;74.10;;;;;;5056874;28;20120;-61
2020/12/02 09:07:36;;;;;;;14.40;9.63;;;5.40;73.80;;;;;;5061136;28;20452;-61
2020/12/02 09:10:03;;;;;;;13.82;10.32;;;5.40;73.60;;;;;;5061074;28;20042;-61
2020/12/02 09:12:29;;;;;;;15.38;11.45;;;5.40;73.40;;;;;;5058857;28;20091;-61
2020/12/02 09:14:55;;;;;;;14.57;10.02;;;5.40;73.20;;;;;;5056115;28;20115;-61
2020/12/02 09:17:21;;;;;;;18.77;12.38;;;5.30;72.90;;;;;;5060463;28;20484;-61
2020/12/02 09:19:47;;;;;;;22.23;12.98;;;5.40;72.90;;;;;;5061908;28;20024;-61
2020/12/02 09:22:12;;;;;;;19.83;12.90;;;5.30;72.80;;;;;;5061045;28;20052;-61
2020/12/02 09:24:38;;;;;;;21.48;13.52;;;5.30;72.90;;;;;;5063157;28;20035;-61
2020/12/02 09:27:04;;;;;;;19.48;12.68;;;5.30;72.70;;;;;;5060148;28;20331;-61
2020/12/02 09:29:29;;;;;;;19.48;13.55;;;5.20;72.50;;;;;;5053046;28;20114;-61
2020/12/02 09:31:55;;;;;;;21.23;13.20;;;5.30;72.60;;;;;;5056717;28;20033;-61
2020/12/02 09:34:22;;;;;;;18.90;12.98;;;5.30;72.70;;;;;;5061287;28;20423;-60
2020/12/02 09:36:48;;;;;;;19.05;12.45;;;5.20;72.60;;;;;;5061266;28;20393;-61
2020/12/02 09:39:14;;;;;;;18.75;11.98;;;5.20;72.20;;;;;;5058925;28;20025;-61
2020/12/02 09:42:02;;;;;;;17.85;12.27;;;5.20;72.10;;;;;;5055008;28;20118;-61
2020/12/02 09:44:43;;;;;;;19.17;12.80;;;5.20;72.30;;;;;;5059295;28;20107;-61
2020/12/02 09:47:14;;;;;;;20.27;13.32;;;5.20;72.40;;;;;;5058327;28;20495;-61
2020/12/02 09:49:41;;;;;;;24.92;17.20;;;5.20;72.30;;;;;;5058340;28;20032;-60
2020/12/02 09:52:10;;;;;;;26.77;19.02;;;5.20;72.30;;;;;;5057082;28;20059;-61
2020/12/02 09:54:41;;;;;;;22.35;16.92;;;5.20;72.00;;;;;;5053858;28;20110;-61
2020/12/02 09:57:12;;;;;;;19.73;16.27;;;5.20;72.00;;;;;;5058167;28;20047;-61
2020/12/02 09:59:38;;;;;;;26.70;19.55;;;5.20;71.80;;;;;;5061974;28;20040;-61
2020/12/02 10:02:23;;;;;;;25.13;18.00;;;5.10;71.80;;;;;;5052943;28;20032;-61
2020/12/02 10:05:03;;;;;;;19.88;16.08;;;5.00;71.90;;;;;;5057071;28;20068;-61
2020/12/02 10:07:44;;;;;;;21.95;16.30;;;5.00;71.90;;;;;;5057850;28;20111;-61
2020/12/02 10:10:19;;;;;;;19.47;13.40;;;5.00;71.90;;;;;;5056138;28;20124;-61
2020/12/02 10:12:50;;;;;;;22.05;13.13;;;4.90;71.40;;;;;;5059964;28;20284;-60
2020/12/02 10:15:32;;;;;;;20.35;13.95;;;4.90;71.40;;;;;;5062294;28;20029;-61
2020/12/02 10:18:25;;;;;;;13.63;10.63;;;4.90;71.60;;;;;;5059715;28;20401;-61
2020/12/02 10:21:08;;;;;;;13.77;9.63;;;4.80;72.10;;;;;;5043015;28;20036;-61
2020/12/02 10:24:15;;;;;;;14.15;10.45;;;4.80;71.90;;;;;;5054822;28;20759;-61
2020/12/02 10:27:12;;;;;;;15.02;9.18;;;4.80;71.90;;;;;;5055691;28;20115;-61
2020/12/02 10:30:12;;;;;;;15.75;10.70;;;4.80;72.10;;;;;;5060235;28;20024;-61
2020/12/02 10:32:57;;;;;;;13.23;8.45;;;4.90;71.80;;;;;;5051462;28;20036;-61
2020/12/02 10:35:24;;;;;;;16.63;10.95;;;4.80;71.90;;;;;;5054627;28;20028;-62
2020/12/02 10:37:55;;;;;;;15.02;10.82;;;4.80;71.70;;;;;;5060836;28;20537;-61
2020/12/02 10:40:21;;;;;;;13.68;8.95;;;4.80;71.50;;;;;;5062211;28;20029;-62
2020/12/02 10:43:04;;;;;;;16.85;12.00;;;4.80;71.60;;;;;;5062049;28;20032;-61
2020/12/02 10:45:30;;;;;;;13.77;9.23;;;4.70;71.40;;;;;;5038796;28;20032;-61
2020/12/02 10:48:21;;;;;;;10.85;7.85;;;4.70;71.20;;;;;;5061019;28;20111;-60
2020/12/02 10:50:47;;;;;;;14.10;10.73;;;4.60;71.30;;;;;;5058010;28;20033;-61
2020/12/02 10:53:16;;;;;;;11.18;7.72;;;4.50;71.50;;;;;;5057021;28;20028;-61
2020/12/02 10:55:42;;;;;;;14.55;9.00;;;4.50;71.70;;;;;;5059544;28;20415;-61
2020/12/02 10:58:20;;;;;;;16.98;10.60;;;4.50;71.90;;;;;;5063858;28;20032;-61
2020/12/02 11:00:52;;;;;;;15.00;9.40;;;4.60;72.20;;;;;;5057413;28;20025;-62
2020/12/02 11:03:36;;;;;;;18.63;12.60;;;4.60;72.20;;;;;;5057790;28;20097;-62
2020/12/02 11:06:22;;;;;;;14.95;10.60;;;4.60;72.30;;;;;;5058207;28;20036;-62
2020/12/02 11:09:18;;;;;;;16.98;11.07;;;4.70;72.00;;;;;;5058654;28;20028;-61
2020/12/02 11:12:10;;;;;;;17.15;11.20;;;4.70;71.90;;;;;;5062093;28;20128;-62
2020/12/02 11:14:39;;;;;;;14.75;9.95;;;4.70;71.90;;;;;;5064608;28;20029;-61
2020/12/02 11:17:19;;;;;;;18.98;12.85;;;4.70;71.60;;;;;;5060124;28;20029;-61
2020/12/02 11:19:50;;;;;;;18.40;13.38;;;4.80;71.60;;;;;;5064411;28;20036;-60
2020/12/02 11:22:51;;;;;;;15.00;11.35;;;4.80;71.70;;;;;;5064361;28;20033;-61
2020/12/02 11:25:22;;;;;;;14.32;10.00;;;4.90;71.80;;;;;;5054434;28;20511;-61
2020/12/02 11:27:48;;;;;;;15.30;10.32;;;4.90;71.70;;;;;;5055514;28;20534;-62
2020/12/02 11:30:23;;;;;;;11.60;8.15;;;4.90;71.30;;;;;;5063154;28;20293;-60
2020/12/02 11:32:54;;;;;;;12.20;8.60;;;5.00;71.30;;;;;;5054133;28;20025;-61
2020/12/02 11:35:41;;;;;;;13.82;9.05;;;5.00;71.00;;;;;;5061498;28;20495;-60
2020/12/02 11:38:42;;;;;;;16.13;9.73;;;5.10;70.90;;;;;;5068340;28;20020;-60
2020/12/02 11:41:58;;;;;;;15.07;9.77;;;5.10;70.80;;;;;;5063409;28;20055;-59
2020/12/02 11:44:54;;;;;;;13.50;9.02;;;5.10;70.90;;;;;;5002536;28;20041;-61
2020/12/02 11:47:45;;;;;;;20.70;13.77;;;5.10;70.70;;;;;;5000521;28;20045;-61
2020/12/02 11:50:32;;;;;;;18.75;14.30;;;5.20;70.70;;;;;;5059153;28;20044;-61
2020/12/02 11:53:13;;;;;;;18.35;13.10;;;5.20;70.30;;;;;;5065884;28;20542;-61
2020/12/02 11:55:39;;;;;;;14.98;10.40;;;5.10;70.30;;;;;;5054789;28;20107;-61
2020/12/02 11:58:09;;;;;;;18.02;11.45;;;5.20;70.50;;;;;;5060857;28;20055;-61
2020/12/02 12:00:35;;;;;;;20.40;12.43;;;5.10;70.20;;;;;;5057611;28;20101;-61
2020/12/02 12:03:28;;;;;;;14.50;9.57;;;5.20;70.50;;;;;;5051108;28;20032;-61
2020/12/02 12:06:08;;;;;;;12.90;8.80;;;5.20;70.30;;;;;;5053471;28;20566;-60
2020/12/02 12:09:08;;;;;;;11.90;8.15;;;5.20;70.20;;;;;;5062054;28;20429;-62
2020/12/02 12:11:36;;;;;;;11.65;7.97;;;5.20;69.80;;;;;;5059471;28;20047;-61
2020/12/02 12:14:32;;;;;;;14.35;9.02;;;5.10;69.70;;;;;;5059286;28;20041;-61
2020/12/02 12:17:29;;;;;;;11.32;7.88;;;5.10;69.80;;;;;;5063087;28;20481;-61
2020/12/02 12:20:17;;;;;;;10.32;6.72;;;5.10;69.70;;;;;;5061609;28;20035;-61
2020/12/02 12:22:48;;;;;;;12.98;8.00;;;5.00;69.60;;;;;;5055955;28;20032;-61
2020/12/02 12:25:34;;;;;;;11.07;7.13;;;5.00;69.60;;;;;;5058977;28;20032;-61
2020/12/02 12:28:10;;;;;;;10.02;7.03;;;5.00;69.50;;;;;;5051555;28;20507;-61
2020/12/02 12:30:36;;;;;;;10.98;7.68;;;4.90;69.30;;;;;;5013615;28;20112;-62
2020/12/02 12:33:05;;;;;;;10.10;7.15;;;4.80;69.20;;;;;;5019443;28;20067;-61
2020/12/02 12:35:37;;;;;;;11.23;7.75;;;4.70;69.40;;;;;;5019487;28;20030;-61
2020/12/02 12:38:31;;;;;;;10.20;6.93;;;4.60;69.50;;;;;;5020172;28;20040;-61
2020/12/02 12:41:05;;;;;;;10.73;7.40;;;4.60;69.80;;;;;;5017482;28;20040;-61
2020/12/02 12:43:46;;;;;;;11.40;8.18;;;4.70;70.90;;;;;;5016173;28;20033;-61
2020/12/02 12:46:18;;;;;;;10.02;6.85;;;4.70;70.60;;;;;;5019114;28;20029;-62
2020/12/02 12:48:45;;;;;;;8.98;5.97;;;4.80;70.60;;;;;;5020853;28;20048;-61
2020/12/02 12:51:13;;;;;;;8.77;6.28;;;4.80;70.80;;;;;;5020288;28;20040;-61
2020/12/02 12:53:41;;;;;;;9.18;7.03;;;4.80;71.00;;;;;;5022789;28;20715;-61
2020/12/02 12:56:11;;;;;;;6.38;5.05;;;4.90;71.00;;;;;;5021448;28;20052;-62
2020/12/02 12:58:39;;;;;;;7.30;5.25;;;4.90;70.90;;;;;;5014730;28;20083;-61
2020/12/02 13:01:06;;;;;;;8.68;5.90;;;4.80;70.90;;;;;;5011550;28;20099;-61
2020/12/02 13:03:32;;;;;;;7.78;5.15;;;4.90;71.60;;;;;;5019300;28;20056;-64
2020/12/02 13:06:04;;;;;;;7.10;5.13;;;4.80;71.10;;;;;;5017937;28;20235;-60
2020/12/02 13:08:38;;;;;;;8.85;5.97;;;4.80;71.20;;;;;;5018957;28;20044;-61
2020/12/02 13:11:09;;;;;;;8.50;6.00;;;4.80;71.40;;;;;;5019484;28;20120;-61
2020/12/02 13:13:45;;;;;;;7.40;5.60;;;4.90;71.50;;;;;;5022125;28;20052;-60